createdAt,value
2024-05-09T00:00:46.674Z,6.30
2024-05-09T00:03:34.356Z,6.70
2024-05-09T00:06:02.471Z,7.53
2024-05-09T00:08:30.048Z,7.50
2024-05-09T00:10:57.957Z,7.22
2024-05-09T00:13:25.360Z,8.32
2024-05-09T00:15:53.158Z,7.30
2024-05-09T00:18:20.912Z,8.50
2024-05-09T00:20:48.831Z,7.38
2024-05-09T00:23:16.341Z,8.57
2024-05-09T00:25:45.031Z,6.07
2024-05-09T00:28:13.167Z,7.22
2024-05-09T00:30:41.251Z,6.32
2024-05-09T00:33:10.331Z,9.07
2024-05-09T00:35:39.912Z,7.65
2024-05-09T00:38:07.631Z,10.40
2024-05-09T00:40:43.504Z,10.85
2024-05-09T00:43:13.564Z,8.95
2024-05-09T00:48:14.211Z,8.40
2024-05-09T00:50:45.435Z,8.05
2024-05-09T00:53:15.233Z,10.50
2024-05-09T00:55:44.401Z,6.10
2024-05-09T00:58:16.393Z,8.63
2024-05-09T01:00:44.895Z,6.25
2024-05-09T01:03:13.990Z,7.43
2024-05-09T01:05:43.929Z,9.50
2024-05-09T01:08:12.242Z,9.02
2024-05-09T01:10:43.877Z,6.90
2024-05-09T01:13:12.726Z,10.93
2024-05-09T01:15:40.624Z,7.45
2024-05-09T01:18:11.506Z,7.60
2024-05-09T01:20:43.375Z,7.63
2024-05-09T01:23:14.573Z,8.70
2024-05-09T01:25:44.512Z,9.15
2024-05-09T01:28:12.375Z,7.63
2024-05-09T01:30:40.118Z,7.57
2024-05-09T01:33:10.004Z,11.32
2024-05-09T01:35:41.859Z,7.85
2024-05-09T01:38:13.819Z,8.70
2024-05-09T01:40:42.067Z,8.75
2024-05-09T01:43:10.981Z,8.93
2024-05-09T01:45:41.010Z,10.23
2024-05-09T01:48:09.619Z,10.82
2024-05-09T01:50:41.562Z,12.82
2024-05-09T01:53:11.943Z,9.10
2024-05-09T01:55:40.209Z,10.05
2024-05-09T01:58:08.827Z,6.95
2024-05-09T02:00:40.636Z,7.70
2024-05-09T02:03:13.520Z,8.88
2024-05-09T02:05:44.485Z,9.38
2024-05-09T02:08:17.335Z,9.30
2024-05-09T02:10:47.149Z,8.50
2024-05-09T02:13:15.695Z,8.57
2024-05-09T02:15:43.695Z,9.13
2024-05-09T02:18:11.737Z,11.20
2024-05-09T02:20:44.080Z,6.68
2024-05-09T02:23:12.240Z,9.43
2024-05-09T02:25:41.512Z,8.10
2024-05-09T02:28:13.308Z,8.85
2024-05-09T02:31:01.685Z,8.07
2024-05-09T02:33:29.262Z,6.53
2024-05-09T02:35:57.021Z,10.25
2024-05-09T02:38:25.091Z,8.63
2024-05-09T02:40:53.715Z,6.88
2024-05-09T02:43:22.291Z,7.97
2024-05-09T02:45:50.092Z,9.93
2024-05-09T02:48:17.689Z,7.78
2024-05-09T02:50:45.565Z,9.32
2024-05-09T02:53:14.293Z,9.38
2024-05-09T02:55:43.070Z,9.30
2024-05-09T02:58:11.126Z,9.27
2024-05-09T03:00:41.876Z,7.80
2024-05-09T03:03:15.403Z,12.15
2024-05-09T03:06:20.741Z,8.13
2024-05-09T03:08:48.530Z,9.68
2024-05-09T03:11:26.616Z,8.82
2024-05-09T03:13:55.530Z,7.45
2024-05-09T03:16:23.533Z,8.70
2024-05-09T03:18:50.982Z,10.13
2024-05-09T03:21:18.833Z,7.85
2024-05-09T03:23:46.434Z,11.85
2024-05-09T03:26:18.044Z,10.23
2024-05-09T03:28:45.924Z,9.95
2024-05-09T03:31:14.358Z,7.53
2024-05-09T03:33:42.740Z,8.70
2024-05-09T03:36:21.388Z,9.98
2024-05-09T03:42:21.529Z,8.52
2024-05-09T03:44:49.620Z,10.32
2024-05-09T03:47:17.133Z,15.95
2024-05-09T03:49:45.009Z,9.80
2024-05-09T03:52:12.406Z,7.90
2024-05-09T03:54:49.382Z,9.95
2024-05-09T03:57:16.837Z,10.85
2024-05-09T03:59:44.520Z,9.55
2024-05-09T04:02:11.943Z,10.63
2024-05-09T04:04:42.406Z,8.27
2024-05-09T04:07:09.747Z,13.52
2024-05-09T04:09:37.461Z,12.38
2024-05-09T04:12:08.181Z,9.15
2024-05-09T04:17:03.438Z,10.88
2024-05-09T04:19:31.558Z,11.50
2024-05-09T04:21:58.980Z,8.18
2024-05-09T04:24:26.736Z,8.73
2024-05-09T04:26:54.193Z,15.52
2024-05-09T04:29:22.027Z,9.85
2024-05-09T04:31:49.541Z,8.32
2024-05-09T04:34:17.515Z,9.77
2024-05-09T04:36:44.883Z,10.15
2024-05-09T04:39:12.608Z,9.48
2024-05-09T04:41:40.080Z,11.43
2024-05-09T04:44:07.872Z,9.88
2024-05-09T04:46:35.211Z,9.63
2024-05-09T04:49:03.073Z,9.85
2024-05-09T04:51:30.521Z,8.05
2024-05-09T04:53:58.312Z,8.88
2024-05-09T04:56:25.701Z,10.60
2024-05-09T04:58:53.523Z,10.02
2024-05-09T05:01:20.954Z,11.20
2024-05-09T05:03:48.959Z,8.20
2024-05-09T05:06:16.418Z,10.65
2024-05-09T05:08:44.258Z,10.07
2024-05-09T05:11:14.604Z,11.23
2024-05-09T05:13:42.424Z,9.07
2024-05-09T05:16:10.049Z,7.80
2024-05-09T05:18:38.021Z,8.05
2024-05-09T05:21:05.877Z,9.63
2024-05-09T05:23:33.871Z,11.35
2024-05-09T05:26:01.449Z,8.38
2024-05-09T05:28:29.226Z,8.98
2024-05-09T05:30:56.534Z,8.88
2024-05-09T05:33:24.485Z,10.40
2024-05-09T05:35:52.024Z,9.13
2024-05-09T05:38:23.738Z,10.10
2024-05-09T05:40:53.664Z,10.07
2024-05-09T05:43:21.418Z,9.98
2024-05-09T05:45:48.749Z,8.10
2024-05-09T05:48:17.971Z,7.20
2024-05-09T05:50:46.229Z,6.65
2024-05-09T05:53:14.323Z,8.90
2024-05-09T05:55:42.107Z,11.32
2024-05-09T05:58:15.103Z,8.57
2024-05-09T06:00:43.259Z,8.63
2024-05-09T06:03:13.708Z,10.55
2024-05-09T06:05:46.266Z,12.52
2024-05-09T06:08:14.255Z,11.30
2024-05-09T06:10:42.382Z,11.00
2024-05-09T06:13:11.813Z,11.23
2024-05-09T06:15:41.042Z,10.25
2024-05-09T06:18:11.253Z,9.68
2024-05-09T06:20:42.369Z,13.20
2024-05-09T06:23:11.697Z,10.77
2024-05-09T06:25:39.312Z,14.07
2024-05-09T06:28:07.404Z,14.65
2024-05-09T06:30:40.305Z,10.57
2024-05-09T06:33:12.511Z,10.35
2024-05-09T06:35:42.071Z,9.80
2024-05-09T06:38:10.387Z,12.20
2024-05-09T06:40:42.541Z,11.05
2024-05-09T06:43:17.413Z,11.20
2024-05-09T06:45:50.662Z,11.63
2024-05-09T06:48:22.261Z,10.25
2024-05-09T06:50:50.653Z,11.30
2024-05-09T06:53:21.971Z,13.90
2024-05-09T06:55:49.959Z,9.95
2024-05-09T06:58:17.827Z,11.10
2024-05-09T07:00:45.354Z,12.85
2024-05-09T07:03:16.897Z,10.73
2024-05-09T07:05:47.673Z,9.77
2024-05-09T07:08:16.924Z,11.48
2024-05-09T07:10:44.600Z,11.85
2024-05-09T07:13:14.303Z,15.27
2024-05-09T07:15:42.423Z,12.55
2024-05-09T07:18:11.342Z,9.45
2024-05-09T07:20:40.536Z,9.05
2024-05-09T07:23:12.838Z,7.78
2024-05-09T07:25:41.856Z,10.63
2024-05-09T07:28:15.083Z,7.97
2024-05-09T07:30:43.239Z,8.25
2024-05-09T07:33:21.199Z,10.35
2024-05-09T07:35:50.245Z,9.23
2024-05-09T07:38:18.023Z,8.20
2024-05-09T07:40:45.631Z,9.48
2024-05-09T07:43:14.777Z,8.88
2024-05-09T07:45:51.080Z,7.68
2024-05-09T07:52:37.866Z,7.40
2024-05-09T07:53:49.448Z,6.53
2024-05-09T07:56:22.401Z,6.25
2024-05-09T07:58:54.279Z,5.32
2024-05-09T08:01:22.321Z,6.80
2024-05-09T08:03:50.660Z,4.40
2024-05-09T08:06:18.344Z,6.05
2024-05-09T08:08:49.273Z,7.75
2024-05-09T08:11:16.689Z,9.52
2024-05-09T08:13:44.486Z,6.28
2024-05-09T08:16:11.884Z,5.65
2024-05-09T08:18:39.935Z,5.63
2024-05-09T08:21:07.671Z,6.15
2024-05-09T08:23:36.496Z,6.28
2024-05-09T08:26:03.840Z,5.15
2024-05-09T08:28:31.631Z,5.53
2024-05-09T08:30:59.646Z,5.82
2024-05-09T08:33:28.405Z,7.10
2024-05-09T08:35:55.961Z,6.15
2024-05-09T08:38:23.654Z,6.50
2024-05-09T08:40:51.305Z,5.57
2024-05-09T08:43:20.761Z,6.28
2024-05-09T08:45:50.214Z,7.93
2024-05-09T08:48:20.195Z,5.47
2024-05-09T08:50:50.572Z,5.15
2024-05-09T08:53:19.001Z,7.25
2024-05-09T08:55:47.194Z,5.35
2024-05-09T08:58:19.554Z,6.00
2024-05-09T09:00:48.212Z,8.43
2024-05-09T09:03:19.925Z,5.40
2024-05-09T09:06:02.528Z,6.68
2024-05-09T09:08:30.343Z,6.93
2024-05-09T09:10:59.059Z,6.38
2024-05-09T09:13:27.218Z,5.88
2024-05-09T09:15:58.479Z,7.50
2024-05-09T09:18:27.325Z,6.30
2024-05-09T09:20:55.610Z,7.00
2024-05-09T09:23:23.359Z,6.75
2024-05-09T09:25:52.036Z,5.60
2024-05-09T09:28:23.523Z,5.55
2024-05-09T09:30:51.061Z,5.07
2024-05-09T09:33:19.057Z,5.38
2024-05-09T09:35:47.032Z,4.80
2024-05-09T09:38:21.196Z,4.60
2024-05-09T09:40:50.312Z,5.50
2024-05-09T09:43:22.863Z,5.03
2024-05-09T09:45:53.341Z,4.63
2024-05-09T09:48:23.078Z,4.75
2024-05-09T09:50:53.028Z,5.60
2024-05-09T09:53:20.933Z,6.65
2024-05-09T09:55:48.915Z,6.80
2024-05-09T09:58:18.265Z,4.38
2024-05-09T10:00:47.508Z,5.07
2024-05-09T10:03:15.668Z,6.63
2024-05-09T10:05:46.136Z,5.43
2024-05-09T10:08:16.374Z,6.72
2024-05-09T10:10:50.599Z,7.15
2024-05-09T10:13:20.119Z,5.53
2024-05-09T10:15:48.707Z,6.05
2024-05-09T10:18:16.819Z,4.95
2024-05-09T10:20:45.754Z,4.95
2024-05-09T10:23:30.160Z,5.35
2024-05-09T10:26:01.806Z,6.32
2024-05-09T10:28:31.465Z,7.18
2024-05-09T10:31:11.752Z,6.22
2024-05-09T10:33:45.835Z,5.95
2024-05-09T10:36:14.146Z,6.15
2024-05-09T10:38:43.449Z,5.80
2024-05-09T10:41:11.679Z,5.55
2024-05-09T10:43:41.033Z,5.50
2024-05-09T10:46:10.104Z,6.95
2024-05-09T10:48:39.048Z,6.25
2024-05-09T10:51:06.537Z,5.85
2024-05-09T10:53:44.694Z,5.55
2024-05-09T10:56:14.390Z,11.18
2024-05-09T10:58:42.584Z,4.72
2024-05-09T11:01:10.768Z,4.88
2024-05-09T11:03:39.781Z,6.22
2024-05-09T11:06:09.884Z,4.72
2024-05-09T11:08:38.439Z,5.25
2024-05-09T11:11:08.154Z,4.80
2024-05-09T11:13:40.943Z,5.78
2024-05-09T11:16:22.008Z,5.10
2024-05-09T11:18:58.208Z,8.65
2024-05-09T11:21:26.179Z,8.32
2024-05-09T11:23:53.942Z,7.30
2024-05-09T11:26:22.299Z,5.70
2024-05-09T11:28:50.874Z,6.28
2024-05-09T11:31:18.687Z,5.20
2024-05-09T11:33:47.178Z,6.53
2024-05-09T11:36:15.327Z,6.90
2024-05-09T11:38:43.278Z,6.50
2024-05-09T11:41:17.597Z,5.15
2024-05-09T11:43:45.400Z,8.50
2024-05-09T11:46:12.934Z,6.30
2024-05-09T11:48:40.965Z,4.80
2024-05-09T11:51:08.410Z,5.30
2024-05-09T11:53:36.107Z,4.88
2024-05-09T11:56:03.657Z,6.40
2024-05-09T11:58:34.749Z,5.78
2024-05-09T12:03:30.263Z,5.20
2024-05-09T12:05:58.030Z,7.05
2024-05-09T12:08:26.008Z,6.80
2024-05-09T12:10:54.067Z,7.45
2024-05-09T12:13:21.964Z,7.60
2024-05-09T12:15:49.479Z,4.60
2024-05-09T12:18:17.291Z,6.72
2024-05-09T12:20:44.624Z,5.25
2024-05-09T12:23:12.385Z,5.65
2024-05-09T12:25:40.264Z,5.15
2024-05-09T12:28:08.983Z,4.63
2024-05-09T12:30:41.764Z,6.40
2024-05-09T12:33:13.587Z,5.18
2024-05-09T12:35:44.191Z,5.03
2024-05-09T12:38:15.461Z,4.60
2024-05-09T12:40:43.603Z,5.43
2024-05-09T12:43:12.035Z,4.53
2024-05-09T12:45:40.650Z,6.78
2024-05-09T12:48:13.227Z,7.05
2024-05-09T12:50:41.526Z,4.65
2024-05-09T12:53:09.710Z,4.78
2024-05-09T12:55:44.912Z,5.32
2024-05-09T12:58:24.508Z,6.55
2024-05-09T13:00:52.910Z,5.20
2024-05-09T13:03:22.028Z,3.45
2024-05-09T13:05:52.874Z,4.28
2024-05-09T13:08:21.200Z,5.75
2024-05-09T13:10:50.350Z,8.80
2024-05-09T13:13:18.376Z,4.97
2024-05-09T13:15:45.937Z,4.95
2024-05-09T13:18:13.935Z,7.50
2024-05-09T13:20:41.345Z,5.22
2024-05-09T13:23:09.154Z,6.53
2024-05-09T13:25:38.104Z,4.50
2024-05-09T13:28:07.583Z,6.85
2024-05-09T13:30:40.392Z,5.28
2024-05-09T13:33:12.231Z,6.32
2024-05-09T13:35:46.848Z,8.65
2024-05-09T13:38:18.773Z,4.53
2024-05-09T13:40:46.705Z,5.82
2024-05-09T13:43:14.817Z,5.15
2024-05-09T13:45:42.790Z,4.15
2024-05-09T13:48:10.828Z,3.55
2024-05-09T13:50:39.461Z,4.75
2024-05-09T13:53:08.231Z,5.55
2024-05-09T13:55:39.196Z,5.22
2024-05-09T13:58:07.780Z,5.68
2024-05-09T14:00:44.371Z,6.22
2024-05-09T14:03:17.667Z,6.57
2024-05-09T14:05:47.430Z,5.85
2024-05-09T14:08:15.922Z,5.38
2024-05-09T14:10:47.279Z,7.38
2024-05-09T14:13:15.734Z,5.22
2024-05-09T14:15:44.809Z,6.63
2024-05-09T14:18:13.986Z,3.80
2024-05-09T14:20:42.882Z,4.63
2024-05-09T14:23:10.577Z,12.50
2024-05-09T14:25:42.567Z,5.38
2024-05-09T14:28:12.740Z,6.35
2024-05-09T14:30:42.166Z,4.20
2024-05-09T14:33:10.258Z,7.70
2024-05-09T14:35:39.116Z,4.25
2024-05-09T14:38:08.593Z,4.22
2024-05-09T14:40:42.162Z,4.15
2024-05-09T14:43:13.137Z,5.30
2024-05-09T14:45:41.617Z,7.22
2024-05-09T14:48:10.241Z,4.97
2024-05-09T14:50:40.277Z,6.82
2024-05-09T14:53:10.074Z,6.25
2024-05-09T14:55:42.909Z,4.05
2024-05-09T14:58:12.479Z,5.28
2024-05-09T15:00:46.333Z,4.35
2024-05-09T15:03:19.225Z,4.40
2024-05-09T15:05:48.025Z,4.15
2024-05-09T15:08:17.731Z,6.93
2024-05-09T15:10:46.021Z,4.53
2024-05-09T15:13:16.253Z,5.30
2024-05-09T15:15:45.177Z,4.45
2024-05-09T15:18:14.183Z,6.30
2024-05-09T15:20:43.814Z,5.22
2024-05-09T15:23:11.318Z,6.45
2024-05-09T15:25:39.107Z,10.55
2024-05-09T15:28:09.836Z,6.65
2024-05-09T15:30:37.930Z,8.75
2024-05-09T15:33:07.318Z,9.65
2024-05-09T15:35:36.400Z,4.07
2024-05-09T15:38:04.448Z,5.82
2024-05-09T15:40:39.560Z,4.85
2024-05-09T15:43:10.880Z,7.28
2024-05-09T15:45:41.000Z,6.90
2024-05-09T15:48:13.663Z,6.43
2024-05-09T15:50:42.748Z,5.90
2024-05-09T15:53:12.293Z,4.57
2024-05-09T15:55:42.545Z,6.13
2024-05-09T15:58:10.393Z,5.25
2024-05-09T16:00:42.122Z,5.35
2024-05-09T16:03:12.877Z,4.82
2024-05-09T16:08:10.171Z,5.90
2024-05-09T16:10:44.612Z,5.32
2024-05-09T16:13:13.164Z,5.57
2024-05-09T16:15:41.148Z,6.50
2024-05-09T16:18:08.718Z,6.82
2024-05-09T16:20:40.338Z,5.53
2024-05-09T16:23:10.389Z,4.28
2024-05-09T16:25:38.335Z,6.60
2024-05-09T16:28:09.719Z,7.20
2024-05-09T16:30:41.697Z,5.50
2024-05-09T16:33:11.072Z,4.57
2024-05-09T16:35:39.647Z,5.43
2024-05-09T16:38:07.454Z,7.50
2024-05-09T16:40:39.284Z,7.03
2024-05-09T16:43:13.046Z,5.30
2024-05-09T16:45:45.279Z,6.65
2024-05-09T16:48:14.073Z,5.60
2024-05-09T16:50:42.008Z,5.10
2024-05-09T16:53:09.582Z,4.35
2024-05-09T16:55:37.432Z,11.88
2024-05-09T16:58:06.752Z,6.10
2024-05-09T17:00:40.928Z,5.28
2024-05-09T17:03:13.177Z,5.30
2024-05-09T17:05:42.870Z,7.20
2024-05-09T17:08:10.541Z,8.25
2024-05-09T17:10:38.606Z,4.93
2024-05-09T17:13:07.691Z,5.78
2024-05-09T17:15:37.530Z,4.53
2024-05-09T17:18:07.415Z,5.28
2024-05-09T17:20:37.358Z,4.40
2024-05-09T17:23:13.727Z,5.88
2024-05-09T17:25:42.491Z,6.05
2024-05-09T17:28:11.043Z,4.68
2024-05-09T17:30:40.939Z,5.43
2024-05-09T17:33:11.102Z,4.95
2024-05-09T17:35:40.145Z,8.80
2024-05-09T17:38:07.796Z,5.75
2024-05-09T17:40:37.628Z,6.13
2024-05-09T17:43:08.988Z,5.57
2024-05-09T17:45:40.556Z,4.82
2024-05-09T17:50:39.195Z,8.52
2024-05-09T17:53:07.175Z,4.28
2024-05-09T17:55:43.015Z,7.93
2024-05-09T17:58:11.953Z,7.20
2024-05-09T18:00:42.172Z,5.38
2024-05-09T18:03:12.186Z,7.00
2024-05-09T18:05:42.881Z,5.53
2024-05-09T18:08:11.418Z,6.65
2024-05-09T18:10:41.380Z,6.75
2024-05-09T18:13:10.037Z,5.63
2024-05-09T18:15:39.052Z,5.40
2024-05-09T18:18:07.575Z,5.47
2024-05-09T18:20:42.225Z,5.75
2024-05-09T18:23:14.646Z,6.53
2024-05-09T18:25:44.003Z,5.55
2024-05-09T18:28:11.541Z,6.13
2024-05-09T18:30:41.244Z,8.18
2024-05-09T18:33:11.488Z,5.75
2024-05-09T18:35:43.183Z,5.53
2024-05-09T18:38:10.967Z,9.18
2024-05-09T18:40:40.237Z,10.82
2024-05-09T18:43:09.455Z,14.13
2024-05-09T18:45:38.439Z,13.60
2024-05-09T18:48:07.525Z,15.98
2024-05-09T18:50:39.466Z,17.60
2024-05-09T18:53:13.238Z,19.27
2024-05-09T18:55:44.873Z,15.55
2024-05-09T18:58:12.773Z,17.73
2024-05-09T19:00:43.034Z,17.60
2024-05-09T19:03:14.264Z,13.95
2024-05-09T19:05:44.898Z,15.10
2024-05-09T19:08:15.052Z,15.80
2024-05-09T19:10:45.608Z,14.48
2024-05-09T19:13:14.280Z,11.88
2024-05-09T19:15:43.668Z,13.10
2024-05-09T19:18:12.866Z,7.68
2024-05-09T19:20:41.167Z,9.70
2024-05-09T19:23:08.707Z,8.85
2024-05-09T19:25:36.856Z,9.00
2024-05-09T19:28:05.558Z,8.80
2024-05-09T19:30:39.313Z,16.17
2024-05-09T19:33:12.073Z,16.08
2024-05-09T19:35:41.019Z,23.67
2024-05-09T19:38:08.501Z,19.27
2024-05-09T19:40:36.667Z,15.70
2024-05-09T19:43:05.889Z,13.13
2024-05-09T19:45:35.534Z,9.10
2024-05-09T19:48:05.010Z,9.20
2024-05-09T19:50:41.191Z,10.50
2024-05-09T19:53:12.208Z,7.68
2024-05-09T19:55:41.411Z,7.57
2024-05-09T19:58:09.958Z,6.18
2024-05-09T20:00:41.195Z,10.10
2024-05-09T20:03:12.637Z,6.88
2024-05-09T20:05:43.176Z,8.20
2024-05-09T20:08:10.802Z,6.95
2024-05-09T20:10:39.118Z,9.45
2024-05-09T20:13:08.180Z,10.45
2024-05-09T20:15:37.839Z,19.52
2024-05-09T20:18:06.570Z,11.80
2024-05-09T20:20:39.666Z,10.95
2024-05-09T20:23:11.024Z,9.05
2024-05-09T20:25:38.914Z,6.03
2024-05-09T20:28:06.929Z,10.55
2024-05-09T20:30:35.880Z,8.27
2024-05-09T20:33:05.460Z,8.75
2024-05-09T20:35:35.139Z,11.65
2024-05-09T20:38:03.676Z,9.15
2024-05-09T20:40:36.459Z,11.00
2024-05-09T20:43:08.038Z,9.93
2024-05-09T20:45:36.489Z,8.23
2024-05-09T20:48:04.357Z,9.77
2024-05-09T20:50:38.566Z,8.90
2024-05-09T20:53:10.100Z,8.77
2024-05-09T20:55:37.926Z,9.40
2024-05-09T20:58:05.517Z,9.20
2024-05-09T21:00:40.014Z,10.85
2024-05-09T21:03:11.689Z,12.27
2024-05-09T21:05:40.695Z,10.95
2024-05-09T21:08:08.788Z,10.63
2024-05-09T21:10:37.517Z,11.85
2024-05-09T21:13:06.525Z,9.57
2024-05-09T21:15:35.845Z,6.55
2024-05-09T21:18:04.431Z,10.10
2024-05-09T21:20:34.853Z,8.25
2024-05-09T21:23:03.028Z,9.20
2024-05-09T21:25:31.538Z,9.60
2024-05-09T21:27:59.190Z,8.45
2024-05-09T21:30:33.097Z,8.45
2024-05-09T21:33:10.948Z,7.90
2024-05-09T21:35:40.530Z,7.53
2024-05-09T21:38:08.144Z,7.00
2024-05-09T21:40:36.890Z,8.07
2024-05-09T21:43:07.202Z,8.50
2024-05-09T21:45:35.458Z,7.05
2024-05-09T21:48:04.570Z,9.50
2024-05-09T21:50:39.082Z,6.93
2024-05-09T21:53:10.122Z,7.72
2024-05-09T21:55:37.591Z,10.50
2024-05-09T21:58:05.659Z,7.20
2024-05-09T22:00:37.675Z,6.60
2024-05-09T22:03:11.303Z,6.90
2024-05-09T22:05:43.861Z,7.57
2024-05-09T22:08:11.779Z,7.75
2024-05-09T22:10:39.444Z,7.72
2024-05-09T22:13:08.690Z,8.77
2024-05-09T22:15:38.501Z,7.75
2024-05-09T22:18:11.336Z,7.18
2024-05-09T22:20:45.587Z,7.18
2024-05-09T22:23:15.469Z,9.23
2024-05-09T22:25:42.813Z,7.28
2024-05-09T22:28:10.848Z,8.40
2024-05-09T22:30:39.973Z,10.02
2024-05-09T22:33:10.228Z,8.13
2024-05-09T22:35:39.224Z,9.65
2024-05-09T22:38:07.666Z,9.55
2024-05-09T22:40:45.887Z,9.20
2024-05-09T22:43:22.651Z,9.75
2024-05-09T22:45:52.068Z,7.90
2024-05-09T22:48:20.437Z,8.43
2024-05-09T22:50:48.065Z,8.32
2024-05-09T22:53:15.971Z,9.68
2024-05-09T22:55:43.364Z,8.48
2024-05-09T22:58:11.169Z,7.93
2024-05-09T23:00:38.942Z,8.27
2024-05-09T23:03:07.046Z,9.82
2024-05-09T23:05:34.648Z,10.40
2024-05-09T23:08:03.024Z,9.40
2024-05-09T23:10:36.081Z,9.15
2024-05-09T23:13:08.925Z,10.82
2024-05-09T23:15:38.835Z,9.23
2024-05-09T23:18:07.451Z,9.40
2024-05-09T23:20:38.681Z,7.85
2024-05-09T23:23:10.582Z,9.65
2024-05-09T23:25:39.384Z,10.65
2024-05-09T23:28:07.929Z,10.35
2024-05-09T23:30:38.976Z,8.80
2024-05-09T23:33:11.278Z,9.50
2024-05-09T23:35:39.526Z,15.68
2024-05-09T23:38:07.336Z,8.35
2024-05-09T23:40:39.023Z,8.38
2024-05-09T23:43:10.643Z,10.43
2024-05-09T23:45:38.949Z,8.25
2024-05-09T23:48:07.591Z,8.13
2024-05-09T23:50:37.928Z,10.73
2024-05-09T23:53:08.698Z,12.23
2024-05-09T23:55:37.465Z,8.35
2024-05-09T23:58:05.810Z,9.88
